Time;durP1;ratioP1;P1;durP2;ratioP2;P2;SDS_P1;SDS_P2;PMS_P1;PMS_P2;Temp;Humidity;BMP_temperature;BMP_pressure;BME280_temperature;BME280_humidity;BME280_pressure;Samples;Min_cycle;Max_cycle;Signal;HPM_P1;HPM_P2
2023/04/25 00:00:06;;;;;;;1.73;1.63;;;;;;;;;;5021923;28;20203;-84
2023/04/25 00:02:35;;;;;;;1.30;1.20;;;;;;;;;;5021677;28;20222;-84
2023/04/25 00:05:03;;;;;;;1.42;1.33;;;;;;;;;;5022501;28;20222;-84
2023/04/25 00:07:31;;;;;;;3.35;1.83;;;;;;;;;;5021292;28;20230;-84
2023/04/25 00:09:58;;;;;;;1.48;1.38;;;;;;;;;;5021596;28;20229;-84
2023/04/25 00:12:28;;;;;;;4.68;2.15;;;;;;;;;;5021499;28;20195;-83
2023/04/25 00:14:57;;;;;;;2.42;1.75;;;;;;;;;;5021566;28;20215;-85
2023/04/25 00:17:25;;;;;;;1.70;1.60;;;;;;;;;;5021737;28;20217;-84
2023/04/25 00:19:54;;;;;;;1.52;1.42;;;;;;;;;;5021892;28;20207;-84
2023/04/25 00:22:22;;;;;;;1.48;1.38;;;;;;;;;;5021952;28;20234;-84
2023/04/25 00:24:50;;;;;;;1.13;1.13;;;;;;;;;;5021667;28;20219;-84
2023/04/25 00:27:17;;;;;;;2.08;1.10;;;;;;;;;;5022030;28;20269;-85
2023/04/25 00:29:45;;;;;;;1.20;1.20;;;;;;;;;;5021691;28;20286;-84
2023/04/25 00:32:12;;;;;;;2.35;1.95;;;;;;;;;;5021393;28;20229;-85
2023/04/25 00:34:40;;;;;;;1.70;1.60;;;;;;;;;;5021607;28;20310;-85
2023/04/25 00:37:10;;;;;;;2.88;2.28;;;;;;;;;;5022453;28;20207;-84
2023/04/25 00:39:37;;;;;;;2.40;2.17;;;;;;;;;;5022631;28;20648;-84
2023/04/25 00:42:05;;;;;;;4.45;2.33;;;;;;;;;;5022041;28;20294;-84
2023/04/25 00:44:33;;;;;;;2.20;1.90;;;;;;;;;;5021955;28;20227;-83
2023/04/25 00:47:01;;;;;;;2.08;1.80;;;;;;;;;;5015194;28;20227;-83
2023/04/25 00:49:28;;;;;;;2.95;2.40;;;;;;;;;;5007196;28;20661;-84
2023/04/25 00:51:57;;;;;;;2.80;2.60;;;;;;;;;;5006038;28;20563;-84
2023/04/25 00:54:26;;;;;;;4.20;3.45;;;;;;;;;;5004849;28;20310;-84
2023/04/25 00:56:54;;;;;;;3.92;3.08;;;;;;;;;;5004359;28;20232;-85
2023/04/25 00:59:22;;;;;;;5.82;3.63;;;;;;;;;;5004642;28;20199;-85
2023/04/25 01:01:50;;;;;;;3.55;2.90;;;;;;;;;;5005516;28;20306;-84
2023/04/25 01:04:17;;;;;;;3.53;2.95;;;;;;;;;;5006179;28;20697;-84
2023/04/25 01:06:45;;;;;;;5.20;3.55;;;;;;;;;;5005271;28;20692;-82
2023/04/25 01:09:12;;;;;;;2.90;2.55;;;;;;;;;;5005511;28;20239;-84
2023/04/25 01:11:41;;;;;;;4.47;2.80;;;;;;;;;;5004412;28;20204;-84
2023/04/25 01:14:09;;;;;;;3.45;3.08;;;;;;;;;;5005125;28;20247;-84
2023/04/25 01:16:36;;;;;;;4.68;3.30;;;;;;;;;;5010047;28;20207;-84
2023/04/25 01:19:08;;;;;;;4.18;3.08;;;;;;;;;;5025015;28;20241;-84
2023/04/25 01:21:37;;;;;;;5.05;2.97;;;;;;;;;;5024902;28;20184;-84
2023/04/25 01:24:05;;;;;;;4.18;3.13;;;;;;;;;;5023125;28;20286;-84
2023/04/25 01:26:33;;;;;;;4.20;3.05;;;;;;;;;;5025093;28;20258;-84
2023/04/25 01:29:01;;;;;;;4.47;3.60;;;;;;;;;;5024986;28;20233;-84
2023/04/25 01:31:29;;;;;;;5.78;3.47;;;;;;;;;;5025809;28;20278;-84
2023/04/25 01:33:57;;;;;;;4.80;3.90;;;;;;;;;;5025903;28;20595;-84
2023/04/25 01:36:25;;;;;;;6.65;4.00;;;;;;;;;;5025031;28;20619;-83
2023/04/25 01:38:53;;;;;;;3.95;2.92;;;;;;;;;;5023959;28;20199;-84
2023/04/25 01:41:22;;;;;;;4.70;2.60;;;;;;;;;;5023758;28;20203;-85
2023/04/25 01:43:50;;;;;;;5.55;3.53;;;;;;;;;;5025330;28;20223;-84
2023/04/25 01:46:18;;;;;;;3.80;2.30;;;;;;;;;;5024939;28;20199;-84
2023/04/25 01:48:46;;;;;;;2.72;2.53;;;;;;;;;;5024132;28;20242;-85
2023/04/25 01:51:14;;;;;;;2.97;2.40;;;;;;;;;;5024234;28;20281;-84
2023/04/25 01:53:41;;;;;;;3.28;2.70;;;;;;;;;;5023576;28;20294;-85
2023/04/25 01:56:10;;;;;;;3.58;2.53;;;;;;;;;;5024016;28;20195;-84
2023/04/25 01:58:38;;;;;;;3.50;2.65;;;;;;;;;;5022627;28;20222;-83
2023/04/25 02:01:05;;;;;;;5.25;2.63;;;;;;;;;;5024386;28;20290;-84
2023/04/25 02:03:35;;;;;;;3.17;2.20;;;;;;;;;;5024619;28;20227;-83
2023/04/25 02:06:02;;;;;;;2.25;2.15;;;;;;;;;;5023498;28;20267;-84
2023/04/25 02:08:31;;;;;;;1.95;1.85;;;;;;;;;;5024158;28;20700;-84
2023/04/25 02:10:58;;;;;;;2.40;2.22;;;;;;;;;;5023768;28;20203;-84
2023/04/25 02:13:27;;;;;;;2.00;1.80;;;;;;;;;;5024357;28;20202;-83
2023/04/25 02:15:55;;;;;;;4.10;2.20;;;;;;;;;;5024606;28;20283;-83
2023/04/25 02:18:22;;;;;;;2.70;2.22;;;;;;;;;;5023677;28;20230;-85
2023/04/25 02:20:49;;;;;;;2.72;2.15;;;;;;;;;;5023494;28;20241;-83
2023/04/25 02:23:18;;;;;;;2.20;2.00;;;;;;;;;;5023076;28;20250;-85
2023/04/25 02:25:46;;;;;;;2.15;2.03;;;;;;;;;;5023312;28;20697;-83
2023/04/25 02:28:13;;;;;;;2.58;2.25;;;;;;;;;;5023785;28;20281;-84
2023/04/25 02:30:42;;;;;;;1.77;1.67;;;;;;;;;;5023252;28;20625;-84
2023/04/25 02:33:10;;;;;;;3.42;2.17;;;;;;;;;;5023933;28;20223;-85
2023/04/25 02:35:37;;;;;;;3.33;2.30;;;;;;;;;;5023540;28;20234;-85
2023/04/25 02:38:05;;;;;;;2.22;2.03;;;;;;;;;;5023105;28;20245;-84
2023/04/25 02:40:32;;;;;;;2.00;1.80;;;;;;;;;;5023988;28;20231;-84
2023/04/25 02:43:00;;;;;;;2.90;2.03;;;;;;;;;;5023173;28;20638;-84
2023/04/25 02:45:27;;;;;;;3.33;2.38;;;;;;;;;;5023526;28;20321;-84
2023/04/25 02:47:56;;;;;;;2.60;2.40;;;;;;;;;;5021886;28;20237;-84
2023/04/25 02:50:24;;;;;;;2.47;2.20;;;;;;;;;;5023018;28;20230;-84
2023/04/25 02:52:51;;;;;;;2.63;2.42;;;;;;;;;;5022423;28;20245;-83
2023/04/25 02:55:19;;;;;;;2.22;2.03;;;;;;;;;;5023254;28;20226;-84
2023/04/25 02:57:47;;;;;;;2.33;2.13;;;;;;;;;;5021411;28;20214;-84
2023/04/25 03:00:15;;;;;;;5.43;4.75;;;;;;;;;;5022062;28;20595;-84
2023/04/25 03:02:43;;;;;;;3.10;2.80;;;;;;;;;;5023008;28;20548;-83
2023/04/25 03:05:12;;;;;;;4.20;2.15;;;;;;;;;;5021681;28;20647;-84
2023/04/25 03:07:40;;;;;;;3.50;2.53;;;;;;;;;;5022363;28;20211;-84
2023/04/25 03:10:08;;;;;;;3.90;2.15;;;;;;;;;;5021379;28;20210;-84
2023/04/25 03:12:36;;;;;;;2.47;2.28;;;;;;;;;;5021879;28;20267;-84
2023/04/25 03:15:04;;;;;;;2.30;2.15;;;;;;;;;;5022157;28;20321;-83
2023/04/25 03:17:32;;;;;;;3.40;2.72;;;;;;;;;;5022046;28;20203;-84
2023/04/25 03:19:59;;;;;;;3.20;2.90;;;;;;;;;;5022180;28;20294;-84
2023/04/25 03:22:28;;;;;;;3.53;2.70;;;;;;;;;;5022461;28;20245;-84
2023/04/25 03:24:56;;;;;;;3.65;2.78;;;;;;;;;;5022876;28;20261;-84
2023/04/25 03:27:23;;;;;;;2.67;2.47;;;;;;;;;;5022129;28;20271;-85
2023/04/25 03:29:50;;;;;;;5.22;2.58;;;;;;;;;;5022621;28;20257;-83
2023/04/25 03:32:18;;;;;;;2.65;2.28;;;;;;;;;;5022727;28;20234;-84
2023/04/25 03:34:45;;;;;;;3.78;2.40;;;;;;;;;;5022551;28;20222;-85
2023/04/25 03:37:13;;;;;;;4.07;3.67;;;;;;;;;;5022124;28;20203;-84
2023/04/25 03:39:42;;;;;;;3.10;2.85;;;;;;;;;;5021429;28;20241;-85
2023/04/25 03:42:09;;;;;;;3.20;3.00;;;;;;;;;;5020789;28;20286;-84
2023/04/25 03:44:37;;;;;;;3.05;2.85;;;;;;;;;;5020617;28;20250;-84
2023/04/25 03:47:04;;;;;;;4.53;2.40;;;;;;;;;;5022256;28;20574;-85
2023/04/25 03:49:33;;;;;;;2.25;2.05;;;;;;;;;;5021286;28;20291;-84
2023/04/25 03:52:01;;;;;;;2.92;2.60;;;;;;;;;;5020823;28;20209;-84
2023/04/25 03:54:28;;;;;;;2.67;2.38;;;;;;;;;;5021015;28;20219;-84
2023/04/25 03:56:57;;;;;;;4.65;3.63;;;;;;;;;;5020991;28;20218;-83
2023/04/25 03:59:25;;;;;;;4.80;2.88;;;;;;;;;;5021610;28;20219;-84
2023/04/25 04:01:53;;;;;;;3.65;2.85;;;;;;;;;;5020637;28;20211;-84
2023/04/25 04:04:20;;;;;;;6.75;2.90;;;;;;;;;;5021462;28;20661;-83
2023/04/25 04:06:48;;;;;;;3.28;2.97;;;;;;;;;;5022005;28;20653;-84
2023/04/25 04:09:16;;;;;;;3.72;3.25;;;;;;;;;;5022873;28;20560;-84
2023/04/25 04:11:43;;;;;;;3.75;2.60;;;;;;;;;;5022455;28;20218;-84
2023/04/25 04:14:12;;;;;;;2.95;2.60;;;;;;;;;;5024008;28;20223;-84
2023/04/25 04:16:39;;;;;;;3.05;2.80;;;;;;;;;;5023650;28;20303;-84
2023/04/25 04:19:07;;;;;;;3.40;3.08;;;;;;;;;;5023720;28;20210;-84
2023/04/25 04:21:34;;;;;;;3.28;2.97;;;;;;;;;;5024861;28;20662;-84
2023/04/25 04:24:03;;;;;;;5.85;3.15;;;;;;;;;;5026301;28;20231;-84
2023/04/25 04:26:31;;;;;;;2.78;2.58;;;;;;;;;;5026704;28;20208;-84
2023/04/25 04:28:59;;;;;;;2.53;2.30;;;;;;;;;;5027250;28;20277;-85
2023/04/25 04:31:28;;;;;;;2.45;2.25;;;;;;;;;;5026844;28;20230;-84
2023/04/25 04:33:55;;;;;;;3.50;2.80;;;;;;;;;;5026915;28;20226;-83
2023/04/25 04:36:23;;;;;;;3.25;2.63;;;;;;;;;;5026919;28;20231;-84
2023/04/25 04:38:50;;;;;;;2.88;2.67;;;;;;;;;;5025789;28;20203;-85
2023/04/25 04:41:19;;;;;;;3.45;2.85;;;;;;;;;;5026514;28;20238;-85
2023/04/25 04:43:46;;;;;;;3.17;2.88;;;;;;;;;;5026336;28;20199;-84
2023/04/25 04:46:14;;;;;;;3.05;2.75;;;;;;;;;;5025107;28;20261;-84
2023/04/25 04:48:44;;;;;;;2.88;2.67;;;;;;;;;;5025704;28;20302;-85
2023/04/25 04:51:11;;;;;;;2.53;2.33;;;;;;;;;;5027759;28;20222;-84
2023/04/25 04:53:39;;;;;;;2.20;1.98;;;;;;;;;;5027519;28;20276;-84
2023/04/25 04:56:07;;;;;;;2.55;2.33;;;;;;;;;;5025394;28;20772;-85
2023/04/25 04:58:36;;;;;;;2.55;2.35;;;;;;;;;;5024842;28;20732;-84
2023/04/25 05:01:03;;;;;;;2.67;2.47;;;;;;;;;;5026437;28;20203;-84
2023/04/25 05:03:31;;;;;;;3.20;2.50;;;;;;;;;;5025483;28;20293;-84
2023/04/25 05:06:00;;;;;;;6.50;2.40;;;;;;;;;;5026283;28;20322;-85
2023/04/25 05:08:27;;;;;;;2.50;2.30;;;;;;;;;;5026739;28;20223;-84
2023/04/25 05:10:55;;;;;;;2.22;2.03;;;;;;;;;;5022853;28;20249;-85
2023/04/25 05:13:22;;;;;;;2.00;1.83;;;;;;;;;;5019579;28;20199;-85
2023/04/25 05:15:50;;;;;;;2.95;2.20;;;;;;;;;;5018966;28;20309;-85
2023/04/25 05:18:17;;;;;;;3.20;2.22;;;;;;;;;;5019790;28;20274;-85
2023/04/25 05:20:45;;;;;;;2.80;2.60;;;;;;;;;;5018337;28;20238;-86
2023/04/25 05:23:13;;;;;;;2.95;2.65;;;;;;;;;;5020076;28;20245;-86
2023/04/25 05:25:43;;;;;;;3.45;2.53;;;;;;;;;;5013617;28;20218;-84
2023/04/25 05:28:14;;;;;;;2.60;2.35;;;;;;;;;;5027848;28;20206;-86
2023/04/25 05:30:41;;;;;;;2.50;2.22;;;;;;;;;;5038823;28;20214;-85
2023/04/25 05:33:09;;;;;;;2.47;2.05;;;;;;;;;;5038222;28;20294;-85
2023/04/25 05:35:37;;;;;;;2.83;2.22;;;;;;;;;;5038753;28;20637;-85
2023/04/25 05:38:05;;;;;;;2.03;1.80;;;;;;;;;;5031716;28;20235;-85
2023/04/25 05:40:34;;;;;;;2.60;2.40;;;;;;;;;;5018758;28;20694;-85
2023/04/25 05:43:01;;;;;;;2.55;2.35;;;;;;;;;;5019765;28;20229;-85
2023/04/25 05:45:29;;;;;;;2.40;2.20;;;;;;;;;;5018647;28;20219;-84
2023/04/25 05:47:57;;;;;;;1.83;1.73;;;;;;;;;;5019684;28;20207;-85
2023/04/25 05:50:24;;;;;;;2.75;2.13;;;;;;;;;;5018933;28;20290;-86
2023/04/25 05:52:53;;;;;;;2.90;2.08;;;;;;;;;;5017997;28;20703;-85
2023/04/25 05:55:20;;;;;;;2.53;2.30;;;;;;;;;;5019882;28;20225;-84
2023/04/25 05:57:49;;;;;;;2.40;2.20;;;;;;;;;;5019743;28;20583;-85
2023/04/25 06:00:18;;;;;;;2.00;1.77;;;;;;;;;;5019687;28;20250;-85
2023/04/25 06:02:46;;;;;;;1.95;1.50;;;;;;;;;;5020169;28;20210;-86
2023/04/25 06:05:13;;;;;;;2.58;1.67;;;;;;;;;;5020789;28;20233;-85
2023/04/25 06:07:41;;;;;;;4.00;1.85;;;;;;;;;;5020288;28;20227;-85
2023/04/25 06:10:10;;;;;;;1.70;1.30;;;;;;;;;;5020335;28;20219;-85
2023/04/25 06:12:38;;;;;;;1.95;1.30;;;;;;;;;;5021328;28;20285;-85
2023/04/25 06:15:08;;;;;;;2.42;1.15;;;;;;;;;;5019049;28;20803;-86
2023/04/25 06:17:36;;;;;;;3.78;1.60;;;;;;;;;;5016932;28;20249;-86
2023/04/25 06:20:04;;;;;;;2.30;1.52;;;;;;;;;;5014641;28;20282;-86
2023/04/25 06:22:31;;;;;;;2.45;1.67;;;;;;;;;;5015842;28;20214;-87
2023/04/25 06:25:00;;;;;;;2.83;1.65;;;;;;;;;;5009059;28;20246;-86
2023/04/25 06:27:27;;;;;;;1.83;1.63;;;;;;;;;;4995503;28;20207;-87
2023/04/25 06:29:54;;;;;;;2.47;1.88;;;;;;;;;;4995490;28;20223;-86
2023/04/25 06:32:23;;;;;;;5.15;1.73;;;;;;;;;;4995665;28;20295;-86
2023/04/25 06:34:51;;;;;;;2.92;1.85;;;;;;;;;;4995249;28;20262;-86
2023/04/25 06:37:18;;;;;;;3.22;2.03;;;;;;;;;;4995856;28;20206;-85
2023/04/25 06:39:46;;;;;;;3.28;2.20;;;;;;;;;;4996675;28;20223;-86
2023/04/25 06:42:13;;;;;;;3.20;1.90;;;;;;;;;;4996201;28;20200;-85
2023/04/25 06:44:41;;;;;;;6.38;1.90;;;;;;;;;;4994750;28;20224;-87
2023/04/25 06:47:08;;;;;;;3.75;1.77;;;;;;;;;;4995247;28;20220;-86
2023/04/25 06:49:37;;;;;;;4.00;2.03;;;;;;;;;;4995566;28;20294;-86
2023/04/25 06:52:05;;;;;;;3.80;1.80;;;;;;;;;;4995774;28;20203;-86
2023/04/25 06:54:32;;;;;;;4.85;2.22;;;;;;;;;;4996472;28;20251;-86
2023/04/25 06:57:00;;;;;;;6.07;2.40;;;;;;;;;;4995437;28;20214;-86
2023/04/25 06:59:28;;;;;;;6.03;2.25;;;;;;;;;;4995151;28;20184;-86
2023/04/25 07:01:55;;;;;;;3.88;2.58;;;;;;;;;;4996270;28;20247;-86
2023/04/25 07:04:23;;;;;;;5.10;2.30;;;;;;;;;;4995560;28;20306;-86
2023/04/25 07:06:52;;;;;;;4.25;2.58;;;;;;;;;;5016026;28;20250;-86
2023/04/25 07:09:19;;;;;;;6.97;3.03;;;;;;;;;;5015296;28;20735;-86
2023/04/25 07:11:47;;;;;;;3.53;2.50;;;;;;;;;;5015324;28;20207;-87
2023/04/25 07:14:14;;;;;;;5.68;3.13;;;;;;;;;;5015256;28;20310;-86
2023/04/25 07:16:42;;;;;;;4.50;3.13;;;;;;;;;;5014482;28;20207;-86
2023/04/25 07:19:09;;;;;;;6.00;3.03;;;;;;;;;;5014499;28;20294;-85
2023/04/25 07:21:37;;;;;;;5.53;3.20;;;;;;;;;;5017920;28;20294;-84
2023/04/25 07:24:07;;;;;;;3.50;2.63;;;;;;;;;;5018623;28;20247;-84
2023/04/25 07:26:34;;;;;;;4.53;2.63;;;;;;;;;;5020173;28;20655;-83
2023/04/25 07:29:02;;;;;;;5.25;3.20;;;;;;;;;;5019603;28;20674;-85
2023/04/25 07:31:29;;;;;;;4.70;3.03;;;;;;;;;;5018637;28;20672;-86
2023/04/25 07:33:57;;;;;;;9.85;4.20;;;;;;;;;;5014584;28;20837;-86
2023/04/25 07:36:26;;;;;;;3.53;2.70;;;;;;;;;;5016105;28;20744;-86
2023/04/25 07:38:53;;;;;;;5.57;2.72;;;;;;;;;;5014906;28;20675;-86
2023/04/25 07:41:22;;;;;;;17.25;3.83;;;;;;;;;;5018148;28;20290;-85
2023/04/25 07:43:50;;;;;;;5.88;2.55;;;;;;;;;;5014344;28;20760;-86
2023/04/25 07:46:17;;;;;;;5.75;2.67;;;;;;;;;;5013700;28;20262;-86
2023/04/25 07:48:45;;;;;;;4.20;2.92;;;;;;;;;;5014288;28;20234;-86
2023/04/25 07:51:12;;;;;;;4.72;2.92;;;;;;;;;;5014036;28;20298;-84
2023/04/25 07:53:40;;;;;;;9.20;3.47;;;;;;;;;;5015409;28;20257;-86
2023/04/25 07:56:09;;;;;;;17.48;5.45;;;;;;;;;;5018249;28;20206;-86
2023/04/25 07:58:37;;;;;;;6.93;3.10;;;;;;;;;;5019934;28;20277;-86
2023/04/25 08:01:05;;;;;;;11.85;3.33;;;;;;;;;;5022358;28;20290;-86
2023/04/25 08:03:33;;;;;;;8.70;2.90;;;;;;;;;;5021444;28;20263;-86
2023/04/25 08:06:00;;;;;;;11.45;3.30;;;;;;;;;;5021961;28;20222;-86
2023/04/25 08:08:28;;;;;;;4.47;2.70;;;;;;;;;;5021780;28;20247;-86
2023/04/25 08:10:55;;;;;;;6.13;2.30;;;;;;;;;;5019466;28;20263;-86
2023/04/25 08:13:22;;;;;;;6.05;2.65;;;;;;;;;;5020493;28;20290;-83
2023/04/25 08:15:51;;;;;;;3.22;2.00;;;;;;;;;;5024208;28;20703;-85
2023/04/25 08:18:19;;;;;;;5.90;2.30;;;;;;;;;;5020721;28;20285;-86
2023/04/25 08:20:47;;;;;;;9.05;2.55;;;;;;;;;;5019786;28;20234;-85
2023/04/25 08:23:15;;;;;;;7.30;2.47;;;;;;;;;;5023091;28;20226;-86
2023/04/25 08:25:42;;;;;;;5.57;2.30;;;;;;;;;;5020505;28;20250;-85
2023/04/25 08:28:10;;;;;;;4.57;2.58;;;;;;;;;;5021939;28;20266;-86
2023/04/25 08:30:38;;;;;;;5.72;2.80;;;;;;;;;;5020773;28;20551;-85
2023/04/25 08:33:07;;;;;;;7.05;3.45;;;;;;;;;;5022316;28;20644;-85
2023/04/25 08:35:35;;;;;;;3.67;2.40;;;;;;;;;;5020597;28;20233;-85
2023/04/25 08:38:02;;;;;;;4.65;2.65;;;;;;;;;;5020004;28;20211;-85
2023/04/25 08:40:30;;;;;;;6.70;2.38;;;;;;;;;;5019756;28;20544;-86
2023/04/25 08:42:59;;;;;;;7.45;2.65;;;;;;;;;;5018341;28;20489;-86
2023/04/25 08:45:28;;;;;;;10.93;2.88;;;;;;;;;;5016499;28;20247;-86
2023/04/25 08:47:56;;;;;;;6.75;2.78;;;;;;;;;;5018186;28;20231;-86
2023/04/25 08:50:26;;;;;;;4.70;3.03;;;;;;;;;;5017104;28;20207;-87
2023/04/25 08:52:55;;;;;;;3.42;2.30;;;;;;;;;;5017413;28;20200;-86
2023/04/25 08:55:23;;;;;;;2.78;1.90;;;;;;;;;;5016216;28;20223;-86
2023/04/25 08:57:51;;;;;;;4.60;2.50;;;;;;;;;;5017903;28;20226;-87
2023/04/25 09:00:20;;;;;;;4.40;2.95;;;;;;;;;;5019350;28;20199;-86
2023/04/25 09:02:48;;;;;;;4.00;2.50;;;;;;;;;;5019303;28;20202;-87
2023/04/25 09:05:16;;;;;;;6.30;2.60;;;;;;;;;;5019543;28;20314;-86
2023/04/25 09:07:45;;;;;;;3.75;2.38;;;;;;;;;;5019326;28;20266;-86
2023/04/25 09:10:12;;;;;;;6.88;2.63;;;;;;;;;;5018894;28;20294;-86
2023/04/25 09:12:40;;;;;;;4.80;2.33;;;;;;;;;;5016720;28;20285;-86
2023/04/25 09:15:11;;;;;;;6.07;2.58;;;;;;;;;;5015288;28;20237;-87
2023/04/25 09:17:40;;;;;;;5.03;2.47;;;;;;;;;;5015428;28;20283;-87
2023/04/25 09:20:09;;;;;;;2.72;2.20;;;;;;;;;;5015186;28;20231;-87
2023/04/25 09:22:38;;;;;;;2.47;2.28;;;;;;;;;;5015841;28;20286;-88
2023/04/25 09:25:11;;;;;;;4.55;2.88;;;;;;;;;;5015361;28;20227;-87
2023/04/25 09:27:39;;;;;;;4.55;2.35;;;;;;;;;;5014787;28;20210;-86
2023/04/25 09:30:08;;;;;;;3.90;2.13;;;;;;;;;;5014990;28;20668;-87
2023/04/25 09:32:35;;;;;;;5.03;2.05;;;;;;;;;;5015084;28;20270;-87
2023/04/25 09:35:04;;;;;;;3.47;1.73;;;;;;;;;;5015086;28;20559;-88
2023/04/25 09:37:32;;;;;;;3.78;2.55;;;;;;;;;;5014548;28;20206;-87
2023/04/25 09:40:05;;;;;;;3.53;1.83;;;;;;;;;;5014453;28;20290;-86
2023/04/25 09:42:34;;;;;;;3.17;2.60;;;;;;;;;;5016734;28;20253;-87
2023/04/25 09:45:03;;;;;;;4.38;1.92;;;;;;;;;;5017305;28;20692;-86
2023/04/25 09:47:31;;;;;;;6.55;2.50;;;;;;;;;;5017213;28;20678;-86
2023/04/25 09:49:58;;;;;;;4.45;2.58;;;;;;;;;;5017568;28;20219;-86
2023/04/25 09:52:26;;;;;;;4.53;2.22;;;;;;;;;;5017463;28;20195;-87
2023/04/25 09:54:54;;;;;;;4.55;2.42;;;;;;;;;;5016986;28;20211;-86
2023/04/25 09:57:24;;;;;;;3.13;1.83;;;;;;;;;;5017044;28;20691;-86
2023/04/25 09:59:54;;;;;;;3.78;2.05;;;;;;;;;;5016721;28;20583;-86
2023/04/25 10:02:23;;;;;;;3.60;1.98;;;;;;;;;;5018277;28;20209;-86
2023/04/25 10:04:55;;;;;;;4.53;2.55;;;;;;;;;;5017332;28;20309;-86
2023/04/25 10:07:25;;;;;;;2.97;1.90;;;;;;;;;;5016344;28;20179;-87
2023/04/25 10:10:00;;;;;;;6.40;2.40;;;;;;;;;;5016304;28;20217;-86
2023/04/25 10:12:28;;;;;;;4.63;1.90;;;;;;;;;;5017267;28;20552;-86
2023/04/25 10:14:57;;;;;;;3.67;2.00;;;;;;;;;;5016859;28;20250;-86
2023/04/25 10:17:25;;;;;;;6.57;2.40;;;;;;;;;;5017318;28;20243;-86
2023/04/25 10:19:53;;;;;;;4.47;1.80;;;;;;;;;;5014767;28;20308;-86
2023/04/25 10:22:31;;;;;;;2.97;2.03;;;;;;;;;;5017352;28;20672;-86
2023/04/25 10:24:59;;;;;;;3.55;1.95;;;;;;;;;;5017015;28;20233;-86
2023/04/25 10:27:29;;;;;;;4.43;1.80;;;;;;;;;;5016439;28;20253;-85
2023/04/25 10:30:05;;;;;;;3.97;2.53;;;;;;;;;;5016225;28;20237;-86
2023/04/25 10:32:33;;;;;;;6.63;2.55;;;;;;;;;;5017071;28;20203;-86
2023/04/25 10:35:12;;;;;;;1.75;1.52;;;;;;;;;;5016362;28;20227;-86
2023/04/25 10:37:52;;;;;;;2.40;1.65;;;;;;;;;;5015550;28;20290;-85
2023/04/25 10:40:24;;;;;;;4.00;2.50;;;;;;;;;;5018705;28;20229;-85
2023/04/25 10:42:54;;;;;;;3.63;2.20;;;;;;;;;;5018170;28;20206;-84
2023/04/25 10:45:23;;;;;;;3.20;1.95;;;;;;;;;;5017041;28;20222;-85
2023/04/25 10:47:50;;;;;;;2.63;1.23;;;;;;;;;;5016286;28;20302;-85
2023/04/25 10:50:18;;;;;;;4.05;1.70;;;;;;;;;;5017077;28;20234;-87
2023/04/25 10:52:46;;;;;;;2.38;1.42;;;;;;;;;;5017375;28;20234;-86
2023/04/25 10:55:13;;;;;;;2.33;1.60;;;;;;;;;;5017428;28;20226;-86
2023/04/25 10:57:43;;;;;;;4.05;2.10;;;;;;;;;;5017290;28;20706;-85
2023/04/25 11:00:15;;;;;;;3.05;1.90;;;;;;;;;;5016974;28;20650;-85
2023/04/25 11:02:46;;;;;;;5.72;1.60;;;;;;;;;;5018896;28;20199;-85
2023/04/25 11:05:23;;;;;;;2.22;1.63;;;;;;;;;;5020945;28;20251;-85
2023/04/25 11:07:54;;;;;;;3.15;2.05;;;;;;;;;;5021599;28;20231;-84
2023/04/25 11:10:22;;;;;;;1.80;1.38;;;;;;;;;;5017214;28;20206;-84
2023/04/25 11:12:49;;;;;;;4.05;1.60;;;;;;;;;;5019771;28;20203;-84
2023/04/25 11:15:17;;;;;;;2.10;1.90;;;;;;;;;;5018174;28;20254;-86
2023/04/25 11:17:46;;;;;;;3.70;1.83;;;;;;;;;;5018082;28;20723;-85
2023/04/25 11:20:15;;;;;;;1.50;1.40;;;;;;;;;;5017795;28;20184;-84
2023/04/25 11:22:43;;;;;;;2.38;1.38;;;;;;;;;;5017560;28;20195;-86
2023/04/25 11:25:12;;;;;;;3.15;1.85;;;;;;;;;;5018364;28;20739;-86
2023/04/25 11:27:50;;;;;;;3.33;1.52;;;;;;;;;;5016032;28;20263;-85
2023/04/25 11:30:18;;;;;;;2.28;1.30;;;;;;;;;;5014026;28;20668;-86
2023/04/25 11:32:47;;;;;;;1.75;1.23;;;;;;;;;;5015843;28;20291;-86
2023/04/25 11:35:15;;;;;;;4.45;2.17;;;;;;;;;;5014558;28;20301;-85
2023/04/25 11:37:43;;;;;;;1.63;1.45;;;;;;;;;;5015038;28;20285;-86
2023/04/25 11:40:11;;;;;;;1.52;1.42;;;;;;;;;;5015072;28;20487;-85
2023/04/25 11:42:39;;;;;;;4.05;1.85;;;;;;;;;;5015380;28;20282;-85
2023/04/25 11:45:09;;;;;;;2.85;1.42;;;;;;;;;;5016428;28;20311;-85
2023/04/25 11:47:37;;;;;;;3.25;1.77;;;;;;;;;;5016491;28;20199;-86
2023/04/25 11:50:09;;;;;;;3.45;1.40;;;;;;;;;;5017040;28;20310;-85
2023/04/25 11:52:39;;;;;;;6.03;1.60;;;;;;;;;;5014656;28;20187;-85
2023/04/25 11:55:09;;;;;;;3.35;1.63;;;;;;;;;;5015851;28;20598;-85
2023/04/25 11:57:38;;;;;;;3.03;1.50;;;;;;;;;;5014706;28;20697;-85
2023/04/25 12:00:15;;;;;;;1.58;1.17;;;;;;;;;;5015065;28;20282;-85
2023/04/25 12:02:43;;;;;;;2.58;1.50;;;;;;;;;;5015536;28;20532;-86
2023/04/25 12:05:15;;;;;;;5.22;1.50;;;;;;;;;;5014062;28;20659;-85
2023/04/25 12:07:42;;;;;;;3.42;1.33;;;;;;;;;;5016461;28;20230;-85
2023/04/25 12:10:12;;;;;;;1.60;1.50;;;;;;;;;;5013600;28;20227;-86
2023/04/25 12:12:44;;;;;;;1.50;1.40;;;;;;;;;;5014936;28;20282;-85
2023/04/25 12:15:15;;;;;;;4.45;1.65;;;;;;;;;;5013811;28;20672;-85
2023/04/25 12:17:45;;;;;;;2.25;1.65;;;;;;;;;;5014911;28;20203;-85
2023/04/25 12:20:16;;;;;;;2.97;1.95;;;;;;;;;;5017454;28;20203;-85
2023/04/25 12:22:46;;;;;;;3.75;1.88;;;;;;;;;;5015750;28;20621;-84
2023/04/25 12:25:14;;;;;;;2.05;1.73;;;;;;;;;;5014415;28;20313;-84
2023/04/25 12:27:43;;;;;;;5.40;1.50;;;;;;;;;;5014287;28;20202;-87
2023/04/25 12:30:12;;;;;;;2.08;1.83;;;;;;;;;;5014866;28;20226;-86
2023/04/25 12:32:39;;;;;;;1.65;1.55;;;;;;;;;;5014506;28;20249;-86
2023/04/25 12:35:08;;;;;;;2.38;1.60;;;;;;;;;;5013490;28;20334;-86
2023/04/25 12:37:37;;;;;;;2.13;1.70;;;;;;;;;;5013536;28;20239;-86
2023/04/25 12:40:06;;;;;;;3.50;1.73;;;;;;;;;;5014767;28;20199;-85
2023/04/25 12:42:33;;;;;;;3.28;1.50;;;;;;;;;;5016169;28;20214;-87
2023/04/25 12:45:01;;;;;;;2.40;1.40;;;;;;;;;;5018306;28;20700;-87
2023/04/25 12:47:28;;;;;;;2.13;1.50;;;;;;;;;;5018697;28;20273;-86
2023/04/25 12:49:56;;;;;;;2.45;1.58;;;;;;;;;;5019077;28;20269;-85
2023/04/25 12:52:23;;;;;;;2.15;1.33;;;;;;;;;;5017936;28;20732;-87
2023/04/25 12:54:52;;;;;;;1.45;1.17;;;;;;;;;;5016622;28;20265;-85
2023/04/25 12:57:21;;;;;;;1.30;1.20;;;;;;;;;;5016907;28;20211;-85
2023/04/25 12:59:48;;;;;;;1.60;1.48;;;;;;;;;;5016994;28;20206;-86
2023/04/25 13:02:16;;;;;;;2.63;1.63;;;;;;;;;;5019274;28;20696;-86
2023/04/25 13:04:43;;;;;;;3.63;1.50;;;;;;;;;;5017998;28;20233;-85
2023/04/25 13:07:11;;;;;;;1.95;1.63;;;;;;;;;;5016782;28;20243;-85
2023/04/25 13:09:38;;;;;;;5.65;2.25;;;;;;;;;;4999981;28;20274;-86
2023/04/25 13:12:07;;;;;;;5.05;1.73;;;;;;;;;;4998321;28;20283;-86
2023/04/25 13:14:35;;;;;;;1.80;1.30;;;;;;;;;;5000405;28;20287;-85
2023/04/25 13:17:02;;;;;;;3.22;1.48;;;;;;;;;;4997268;28;20238;-85
2023/04/25 13:19:30;;;;;;;1.50;1.40;;;;;;;;;;4997280;28;20199;-86
2023/04/25 13:21:58;;;;;;;3.97;1.88;;;;;;;;;;4998031;28;20207;-86
2023/04/25 13:24:26;;;;;;;1.38;1.30;;;;;;;;;;4996566;28;20411;-86
2023/04/25 13:26:53;;;;;;;1.27;1.05;;;;;;;;;;4997432;28;20196;-86
2023/04/25 13:29:22;;;;;;;2.10;1.88;;;;;;;;;;5011810;28;20286;-86
2023/04/25 13:31:50;;;;;;;1.55;1.42;;;;;;;;;;5015807;28;20210;-86
2023/04/25 13:34:17;;;;;;;3.33;2.33;;;;;;;;;;5015498;28;20322;-85
2023/04/25 13:36:45;;;;;;;1.80;1.35;;;;;;;;;;5016043;28;20386;-86
2023/04/25 13:39:13;;;;;;;1.92;1.50;;;;;;;;;;5016337;28;20648;-85
2023/04/25 13:41:40;;;;;;;1.88;1.45;;;;;;;;;;5015933;28;20289;-86
2023/04/25 13:44:08;;;;;;;4.18;1.92;;;;;;;;;;5016512;28;20230;-85
2023/04/25 13:46:37;;;;;;;3.50;2.00;;;;;;;;;;5017373;28;20203;-88
2023/04/25 13:49:05;;;;;;;5.93;2.33;;;;;;;;;;5018251;28;20210;-85
2023/04/25 13:51:32;;;;;;;1.92;1.40;;;;;;;;;;5018711;28;20313;-86
2023/04/25 13:54:00;;;;;;;1.75;1.63;;;;;;;;;;5016696;28;20261;-86
2023/04/25 13:56:28;;;;;;;1.77;1.33;;;;;;;;;;5015994;28;20225;-86
2023/04/25 13:58:56;;;;;;;2.85;1.80;;;;;;;;;;5015940;28;20238;-85
2023/04/25 14:01:24;;;;;;;2.92;1.45;;;;;;;;;;5016331;28;20249;-86
2023/04/25 14:03:53;;;;;;;1.80;1.50;;;;;;;;;;5018363;28;20234;-86
2023/04/25 14:06:22;;;;;;;4.03;2.28;;;;;;;;;;5016859;28;20286;-86
2023/04/25 14:08:50;;;;;;;1.58;1.45;;;;;;;;;;5016056;28;20302;-85
2023/04/25 14:11:18;;;;;;;2.05;1.67;;;;;;;;;;5016864;28;20229;-85
2023/04/25 14:13:47;;;;;;;3.53;1.65;;;;;;;;;;5017154;28;20203;-86
2023/04/25 14:16:14;;;;;;;1.25;1.15;;;;;;;;;;5016064;28;20203;-86
2023/04/25 14:18:42;;;;;;;1.88;1.10;;;;;;;;;;5015903;28;20200;-86
2023/04/25 14:21:11;;;;;;;2.35;1.40;;;;;;;;;;5017464;28;20294;-86
2023/04/25 14:23:38;;;;;;;2.20;1.20;;;;;;;;;;5015544;28;20295;-86
2023/04/25 14:26:06;;;;;;;1.40;1.30;;;;;;;;;;5015485;28;20199;-85
2023/04/25 14:28:33;;;;;;;1.30;1.20;;;;;;;;;;5015513;28;20647;-86
2023/04/25 14:31:01;;;;;;;3.08;1.10;;;;;;;;;;5015426;28;20666;-87
2023/04/25 14:33:28;;;;;;;4.40;1.60;;;;;;;;;;5016336;28;20203;-86
2023/04/25 14:35:56;;;;;;;1.13;1.08;;;;;;;;;;5014066;28;20305;-87
2023/04/25 14:38:25;;;;;;;1.90;1.58;;;;;;;;;;5015400;28;20223;-86
2023/04/25 14:40:53;;;;;;;4.72;1.58;;;;;;;;;;5015246;28;20225;-87
2023/04/25 14:43:21;;;;;;;4.10;1.33;;;;;;;;;;5015980;28;20203;-86
2023/04/25 14:45:48;;;;;;;2.83;1.80;;;;;;;;;;5016039;28;20254;-86
2023/04/25 14:48:17;;;;;;;4.28;1.50;;;;;;;;;;5015866;28;20249;-86